Terminal Aerodrome Forecast
Issued by NWS

Home | Current Version | Previous Version | Text Only | Print | Product List | Glossary On
Versions: 1 2 3 4 5 6 7 8 9 10 11 12 13 14 15
000
FTUS42 TJSJ 020529
TAFJBQ
TAF
TJBQ 020529Z 0206/0306 11006KT P6SM SCT060 SCT080 SCT100
     FM021500 07015KT P6SM FEW030 SCT050
     FM021930 09012KT P6SM VCSH SCT040 BKN050
     FM022330 11004KT P6SM FEW030 SCT050
      AMD NOT SKED TIL 021100=

USA.gov is the U.S. government's official web portal to all federal, state and local government web resources and services.